Beaverton, Michigan
Current Conditions -  °F | °C
As of 9:52 PM on Tuesday 21 Oct 2014 (Local Time) from KIKW Reporting Station
Clear Clear  
Wind Chill: 36°   Ceiling: Unl
Heat Index: 40°   Visibility: 10mi
Dew Point: 32°   Wind: 6mph
Humidity: 72%   Direction: 40°NE
Pressure: 30.26"   Gusts: NA
Location:  43.88°N, 84.48°W
Report Text: KIKW 220152Z AUTO 04005KT 10SM CLR 05/00 A3026 RMK AO2 T00460000
Loading
Personal Weather Stations






























Interactive Weather Map
Tropical Storm Tracking
New forecast layout! Learn more

10-Day Weather Forecast

Advertisements
Track Severe Weather on mobile